Terminal Aerodrome Forecast
Issued by NWS

Home | Current Version | Previous Version | Text Only | Print | Product List | Glossary Off
Versions: 1 2 3 4 5 6 7 8 9 10 11 12 13 14 15 16 17

000
FTUS44 KTSA 012300
TAFFYV
TAF
KFYV 012320Z 0200/0224 18016G24KT P6SM FEW040
     FM020200 18010KT P6SM VCTS SCT050CB BKN150
      TEMPO 0204/0208 VRB15G25KT 3SM -TSRA BKN025CB
     FM020900 18007KT P6SM BKN080
      TEMPO 0209/0212 P6SM -TSRA BKN050CB=

USA.gov is the U.S. government's official web portal to all federal, state and local government web resources and services.